createdAt,value
2023-11-25T00:01:15.426Z,7.30
2023-11-25T00:03:42.684Z,7.25
2023-11-25T00:06:10.187Z,7.45
2023-11-25T00:08:37.012Z,7.10
2023-11-25T00:11:14.353Z,6.97
2023-11-25T00:13:45.233Z,6.90
2023-11-25T00:16:12.547Z,7.40
2023-11-25T00:18:40.356Z,6.75
2023-11-25T00:21:07.604Z,6.78
2023-11-25T00:23:34.993Z,7.07
2023-11-25T00:26:03.133Z,7.30
2023-11-25T00:28:29.598Z,7.18
2023-11-25T00:30:56.297Z,7.70
2023-11-25T00:33:22.949Z,6.68
2023-11-25T00:35:49.609Z,7.00
2023-11-25T00:38:16.064Z,7.38
2023-11-25T00:40:42.958Z,7.63
2023-11-25T00:43:09.626Z,7.45
2023-11-25T00:45:36.596Z,7.43
2023-11-25T00:48:04.320Z,7.57
2023-11-25T00:50:31.257Z,6.60
2023-11-25T00:52:57.943Z,7.78
2023-11-25T00:55:24.676Z,8.10
2023-11-25T00:57:51.569Z,8.48
2023-11-25T01:00:18.836Z,8.25
2023-11-25T01:02:45.683Z,8.07
2023-11-25T01:05:13.315Z,8.75
2023-11-25T01:07:40.362Z,9.43
2023-11-25T01:10:07.961Z,9.40
2023-11-25T01:12:36.987Z,9.32
2023-11-25T01:15:05.836Z,9.52
2023-11-25T01:17:32.698Z,9.50
2023-11-25T01:19:59.495Z,8.90
2023-11-25T01:22:26.423Z,9.32
2023-11-25T01:24:53.486Z,10.70
2023-11-25T01:27:20.906Z,10.70
2023-11-25T01:29:47.606Z,10.63
2023-11-25T01:32:14.268Z,10.85
2023-11-25T01:34:43.205Z,11.35
2023-11-25T01:37:13.082Z,11.00
2023-11-25T01:39:40.657Z,12.05
2023-11-25T01:42:07.886Z,12.48
2023-11-25T01:44:38.389Z,13.85
2023-11-25T01:47:06.634Z,14.52
2023-11-25T01:49:34.308Z,14.73
2023-11-25T01:52:01.300Z,13.85
2023-11-25T01:54:28.456Z,13.40
2023-11-25T01:56:56.806Z,10.85
2023-11-25T01:59:24.752Z,10.63
2023-11-25T02:01:51.502Z,11.38
2023-11-25T02:04:18.885Z,11.13
2023-11-25T02:06:46.722Z,10.63
2023-11-25T02:09:15.066Z,11.52
2023-11-25T02:11:56.422Z,11.27
2023-11-25T02:14:23.885Z,12.15
2023-11-25T02:16:51.267Z,10.43
2023-11-25T02:19:19.487Z,9.85
2023-11-25T02:21:46.193Z,9.73
2023-11-25T02:24:13.502Z,9.55
2023-11-25T02:26:40.422Z,10.18
2023-11-25T02:29:08.629Z,8.95
2023-11-25T02:31:38.512Z,8.95
2023-11-25T02:34:11.330Z,9.07
2023-11-25T02:36:39.950Z,8.98
2023-11-25T02:39:12.272Z,8.48
2023-11-25T02:41:39.957Z,9.18
2023-11-25T02:44:08.680Z,9.60
2023-11-25T02:46:37.091Z,9.57
2023-11-25T02:49:04.217Z,9.23
2023-11-25T02:51:30.752Z,8.93
2023-11-25T02:53:58.209Z,8.70
2023-11-25T02:56:24.840Z,9.18
2023-11-25T02:58:51.599Z,10.45
2023-11-25T03:01:20.858Z,10.18
2023-11-25T03:03:49.970Z,9.05
2023-11-25T03:06:22.498Z,9.68
2023-11-25T03:08:49.928Z,9.45
2023-11-25T03:11:19.917Z,9.20
2023-11-25T03:13:46.620Z,9.27
2023-11-25T03:16:13.439Z,8.13
2023-11-25T03:18:40.980Z,7.85
2023-11-25T03:21:11.348Z,8.25
2023-11-25T03:23:38.264Z,8.57
2023-11-25T03:26:13.424Z,7.93
2023-11-25T03:28:40.631Z,8.65
2023-11-25T03:31:09.670Z,8.38
2023-11-25T03:33:36.749Z,7.88
2023-11-25T03:36:03.635Z,8.68
2023-11-25T03:38:31.124Z,8.25
2023-11-25T03:40:57.887Z,8.23
2023-11-25T03:43:27.809Z,8.15
2023-11-25T03:45:54.479Z,8.85
2023-11-25T03:48:20.998Z,9.05
2023-11-25T03:50:47.953Z,8.60
2023-11-25T03:53:14.603Z,8.32
2023-11-25T03:55:41.343Z,8.65
2023-11-25T03:58:08.429Z,10.05
2023-11-25T04:00:36.134Z,9.52
2023-11-25T04:03:03.137Z,9.65
2023-11-25T04:05:30.210Z,10.55
2023-11-25T04:07:56.666Z,10.10
2023-11-25T04:10:23.746Z,10.38
2023-11-25T04:12:52.596Z,10.07
2023-11-25T04:15:23.121Z,11.05
2023-11-25T04:17:50.235Z,10.45
2023-11-25T04:20:25.920Z,10.07
2023-11-25T04:22:53.468Z,10.32
2023-11-25T04:25:20.162Z,10.75
2023-11-25T04:27:50.928Z,10.00
2023-11-25T04:30:18.026Z,9.68
2023-11-25T04:32:47.075Z,9.10
2023-11-25T04:35:16.716Z,8.70
2023-11-25T04:37:47.614Z,9.07
2023-11-25T04:40:15.291Z,9.52
2023-11-25T04:42:43.142Z,9.15
2023-11-25T04:45:28.233Z,9.35
2023-11-25T04:47:55.098Z,9.45
2023-11-25T04:50:21.915Z,10.82
2023-11-25T04:52:48.951Z,10.00
2023-11-25T04:55:15.912Z,10.32
2023-11-25T04:57:43.678Z,11.50
2023-11-25T05:00:12.819Z,10.98
2023-11-25T05:02:40.562Z,10.75
2023-11-25T05:05:08.449Z,10.20
2023-11-25T05:07:36.417Z,10.15
2023-11-25T05:10:09.145Z,10.43
2023-11-25T05:12:36.243Z,9.60
2023-11-25T05:15:04.472Z,8.85
2023-11-25T05:17:31.888Z,9.35
2023-11-25T05:20:02.515Z,8.73
2023-11-25T05:22:30.041Z,9.02
2023-11-25T05:24:57.303Z,8.82
2023-11-25T05:27:24.733Z,9.60
2023-11-25T05:29:51.282Z,9.43
2023-11-25T05:32:18.672Z,8.55
2023-11-25T05:34:46.049Z,9.60
2023-11-25T05:37:13.987Z,8.13
2023-11-25T05:39:42.273Z,8.50
2023-11-25T05:42:09.778Z,7.53
2023-11-25T05:44:36.642Z,7.55
2023-11-25T05:47:03.420Z,7.15
2023-11-25T05:49:30.120Z,7.40
2023-11-25T05:52:01.059Z,6.75
2023-11-25T05:54:29.004Z,6.90
2023-11-25T05:56:55.439Z,6.20
2023-11-25T05:59:22.121Z,6.03
2023-11-25T06:01:49.759Z,6.00
2023-11-25T06:04:19.612Z,5.85
2023-11-25T06:06:48.337Z,6.15
2023-11-25T06:09:16.182Z,6.10
2023-11-25T06:11:43.553Z,5.70
2023-11-25T06:14:14.312Z,6.30
2023-11-25T06:16:44.602Z,6.13
2023-11-25T06:19:13.078Z,6.38
2023-11-25T06:21:42.676Z,6.93
2023-11-25T06:24:12.146Z,6.40
2023-11-25T06:26:39.981Z,6.97
2023-11-25T06:29:07.502Z,7.20
2023-11-25T06:31:37.467Z,7.03
2023-11-25T06:34:05.002Z,7.22
2023-11-25T06:36:32.032Z,7.80
2023-11-25T06:38:58.926Z,7.65
2023-11-25T06:41:27.564Z,7.22
2023-11-25T06:43:54.780Z,7.20
2023-11-25T06:46:24.073Z,6.85
2023-11-25T06:48:51.815Z,6.93
2023-11-25T06:51:18.842Z,7.65
2023-11-25T06:53:46.099Z,7.75
2023-11-25T06:56:13.336Z,7.75
2023-11-25T06:58:42.054Z,7.28
2023-11-25T07:01:10.020Z,7.68
2023-11-25T07:03:37.173Z,7.65
2023-11-25T07:06:06.063Z,8.80
2023-11-25T07:08:34.136Z,9.10
2023-11-25T07:11:03.181Z,9.40
2023-11-25T07:13:30.216Z,9.10
2023-11-25T07:15:58.531Z,9.43
2023-11-25T07:18:25.217Z,8.85
2023-11-25T07:20:54.208Z,9.23
2023-11-25T07:23:22.428Z,9.90
2023-11-25T07:25:49.094Z,10.15
2023-11-25T07:28:17.498Z,10.60
2023-11-25T07:30:44.930Z,9.13
2023-11-25T07:33:12.307Z,9.05
2023-11-25T07:35:40.988Z,10.05
2023-11-25T07:38:08.271Z,9.88
2023-11-25T07:40:35.857Z,9.27
2023-11-25T07:43:04.759Z,9.90
2023-11-25T07:45:31.609Z,9.88
2023-11-25T07:47:58.132Z,9.60
2023-11-25T07:50:25.383Z,10.13
2023-11-25T07:52:54.839Z,9.20
2023-11-25T07:55:21.440Z,9.18
2023-11-25T07:57:49.547Z,9.98
2023-11-25T08:00:17.757Z,9.35
2023-11-25T08:02:46.287Z,10.02
2023-11-25T08:05:23.307Z,8.90
2023-11-25T08:07:57.919Z,10.02
2023-11-25T08:10:35.754Z,9.38
2023-11-25T08:13:03.224Z,9.23
2023-11-25T08:15:30.406Z,9.80
2023-11-25T08:17:59.910Z,8.90
2023-11-25T08:20:27.078Z,9.25
2023-11-25T08:22:54.645Z,9.20
2023-11-25T08:25:22.816Z,9.10
2023-11-25T08:27:50.739Z,9.10
2023-11-25T08:30:18.885Z,7.90
2023-11-25T08:32:45.666Z,8.00
2023-11-25T08:35:15.920Z,7.43
2023-11-25T08:37:44.234Z,7.60
2023-11-25T08:40:17.400Z,7.88
2023-11-25T08:42:45.633Z,8.25
2023-11-25T08:45:13.892Z,7.30
2023-11-25T08:47:44.038Z,8.10
2023-11-25T08:50:12.263Z,8.65
2023-11-25T08:52:43.031Z,8.60
2023-11-25T08:55:13.960Z,9.25
2023-11-25T08:57:45.859Z,9.18
2023-11-25T09:00:16.591Z,8.90
2023-11-25T09:02:45.490Z,9.52
2023-11-25T09:05:19.316Z,9.73
2023-11-25T09:07:46.574Z,10.70
2023-11-25T09:10:13.627Z,10.23
2023-11-25T09:12:41.769Z,11.90
2023-11-25T09:15:10.040Z,10.32
2023-11-25T09:17:40.186Z,10.23
2023-11-25T09:20:11.418Z,10.45
2023-11-25T09:22:39.553Z,10.40
2023-11-25T09:25:06.351Z,10.20
2023-11-25T09:27:33.707Z,10.95
2023-11-25T09:30:00.346Z,11.82
2023-11-25T09:32:29.223Z,11.90
2023-11-25T09:34:56.176Z,12.18
2023-11-25T09:37:26.544Z,10.80
2023-11-25T09:39:53.269Z,10.45
2023-11-25T09:42:20.902Z,10.43
2023-11-25T09:44:48.169Z,9.60
2023-11-25T09:47:16.124Z,9.13
2023-11-25T09:49:45.656Z,9.57
2023-11-25T09:52:14.559Z,9.65
2023-11-25T09:54:41.799Z,10.27
2023-11-25T09:57:09.855Z,10.80
2023-11-25T09:59:37.435Z,10.65
2023-11-25T10:02:04.482Z,10.70
2023-11-25T10:04:34.414Z,11.40
2023-11-25T10:07:02.910Z,11.32
2023-11-25T10:09:29.609Z,11.07
2023-11-25T10:11:57.768Z,11.27
2023-11-25T10:14:28.905Z,11.68
2023-11-25T10:16:56.036Z,12.10
2023-11-25T10:19:23.859Z,12.30
2023-11-25T10:21:51.378Z,12.18
2023-11-25T10:24:22.914Z,12.70
2023-11-25T10:26:51.540Z,11.88
2023-11-25T10:29:21.937Z,11.75
2023-11-25T10:31:59.450Z,13.32
2023-11-25T10:34:27.700Z,12.13
2023-11-25T10:36:54.630Z,11.55
2023-11-25T10:39:25.497Z,12.30
2023-11-25T10:41:52.697Z,11.52
2023-11-25T10:44:22.006Z,11.70
2023-11-25T10:46:49.374Z,11.70
2023-11-25T10:49:17.550Z,11.35
2023-11-25T10:51:46.397Z,11.40
2023-11-25T10:54:17.541Z,10.82
2023-11-25T10:56:47.606Z,11.52
2023-11-25T10:59:15.241Z,10.30
2023-11-25T11:01:45.461Z,10.57
2023-11-25T11:04:21.209Z,10.15
2023-11-25T11:07:02.018Z,9.30
2023-11-25T11:09:32.029Z,12.60
2023-11-25T11:12:16.124Z,11.27
2023-11-25T11:14:48.742Z,11.68
2023-11-25T11:17:20.018Z,10.48
2023-11-25T11:19:54.201Z,10.68
2023-11-25T11:22:22.566Z,10.55
2023-11-25T11:24:57.036Z,12.05
2023-11-25T11:27:39.436Z,10.70
2023-11-25T11:30:09.786Z,11.35
2023-11-25T11:32:36.578Z,10.95
2023-11-25T11:35:04.390Z,11.63
2023-11-25T11:37:41.616Z,10.40
2023-11-25T11:40:08.378Z,10.50
2023-11-25T11:42:38.035Z,11.38
2023-11-25T11:45:45.594Z,12.27
2023-11-25T11:48:16.467Z,12.38
2023-11-25T11:50:46.070Z,11.32
2023-11-25T11:53:15.090Z,10.60
2023-11-25T11:55:42.899Z,10.48
2023-11-25T11:58:17.337Z,11.10
2023-11-25T12:01:06.669Z,10.35
2023-11-25T12:03:35.121Z,9.43
2023-11-25T12:06:02.632Z,10.87
2023-11-25T12:08:30.836Z,10.05
2023-11-25T12:10:58.424Z,10.10
2023-11-25T12:13:41.401Z,10.07
2023-11-25T12:16:09.825Z,11.20
2023-11-25T12:18:37.379Z,10.77
2023-11-25T12:21:06.335Z,10.93
2023-11-25T12:23:44.689Z,11.23
2023-11-25T12:26:21.735Z,10.25
2023-11-25T12:28:49.399Z,9.73
2023-11-25T12:31:20.367Z,9.60
2023-11-25T12:33:47.770Z,8.50
2023-11-25T12:36:17.396Z,10.38
2023-11-25T12:38:44.425Z,9.27
2023-11-25T12:41:14.385Z,9.70
2023-11-25T12:44:00.471Z,10.18
2023-11-25T12:46:28.002Z,9.95
2023-11-25T12:48:59.123Z,10.82
2023-11-25T12:51:45.130Z,10.75
2023-11-25T12:54:12.816Z,11.10
2023-11-25T12:56:41.763Z,11.23
2023-11-25T12:59:13.728Z,10.93
2023-11-25T13:01:41.534Z,10.38
2023-11-25T13:04:09.443Z,10.20
2023-11-25T13:06:52.507Z,10.10
2023-11-25T13:09:22.876Z,10.63
2023-11-25T13:11:50.269Z,10.40
2023-11-25T13:14:18.551Z,9.60
2023-11-25T13:16:45.338Z,10.63
2023-11-25T13:19:12.544Z,10.00
2023-11-25T13:21:41.829Z,9.27
2023-11-25T13:24:10.644Z,9.80
2023-11-25T13:26:37.314Z,10.30
2023-11-25T13:29:04.337Z,10.20
2023-11-25T13:31:31.014Z,9.85
2023-11-25T13:33:59.344Z,9.73
2023-11-25T13:36:27.632Z,9.13
2023-11-25T13:38:55.835Z,9.65
2023-11-25T13:41:23.800Z,9.27
2023-11-25T13:43:51.860Z,9.93
2023-11-25T13:46:20.541Z,10.63
2023-11-25T13:48:51.293Z,9.52
2023-11-25T13:51:18.448Z,10.13
2023-11-25T13:53:45.315Z,9.48
2023-11-25T13:56:13.521Z,8.98
2023-11-25T13:58:40.499Z,8.67
2023-11-25T14:01:07.788Z,8.32
2023-11-25T14:03:34.403Z,8.45
2023-11-25T14:06:01.557Z,8.95
2023-11-25T14:08:29.938Z,8.90
2023-11-25T14:10:57.341Z,8.40
2023-11-25T14:13:25.293Z,8.88
2023-11-25T14:15:55.155Z,7.80
2023-11-25T14:18:23.339Z,9.07
2023-11-25T14:20:50.548Z,9.35
2023-11-25T14:23:17.456Z,8.30
2023-11-25T14:25:44.727Z,8.65
2023-11-25T14:28:13.154Z,8.35
2023-11-25T14:30:39.994Z,8.73
2023-11-25T14:33:07.277Z,9.65
2023-11-25T14:35:35.015Z,9.27
2023-11-25T14:38:05.948Z,9.70
2023-11-25T14:40:37.578Z,9.63
2023-11-25T14:43:05.358Z,12.20
2023-11-25T14:45:31.769Z,11.30
2023-11-25T14:47:58.695Z,10.10
2023-11-25T14:50:25.946Z,10.23
2023-11-25T14:52:53.607Z,10.43
2023-11-25T14:55:21.011Z,10.32
2023-11-25T14:57:48.483Z,10.18
2023-11-25T15:00:17.342Z,10.35
2023-11-25T15:02:43.954Z,9.00
2023-11-25T15:05:13.806Z,10.35
2023-11-25T15:07:40.733Z,7.85
2023-11-25T15:10:07.334Z,8.25
2023-11-25T15:12:36.121Z,7.72
2023-11-25T15:15:04.551Z,9.55
2023-11-25T15:17:32.114Z,8.13
2023-11-25T15:19:58.750Z,7.88
2023-11-25T15:22:26.537Z,8.15
2023-11-25T15:24:53.727Z,7.93
2023-11-25T15:27:20.594Z,7.72
2023-11-25T15:30:00.664Z,9.73
2023-11-25T15:32:29.285Z,8.90
2023-11-25T15:34:57.445Z,9.65
2023-11-25T15:37:26.481Z,8.10
2023-11-25T15:39:56.721Z,7.88
2023-11-25T15:42:26.657Z,7.78
2023-11-25T15:44:54.048Z,7.35
2023-11-25T15:47:24.505Z,7.63
2023-11-25T15:50:01.880Z,8.02
2023-11-25T15:52:28.626Z,8.25
2023-11-25T15:54:55.194Z,7.65
2023-11-25T15:57:23.955Z,8.52
2023-11-25T15:59:51.543Z,8.38
2023-11-25T16:02:20.190Z,7.50
2023-11-25T16:04:50.010Z,8.40
2023-11-25T16:07:19.918Z,8.60
2023-11-25T16:09:46.927Z,8.63
2023-11-25T16:12:14.517Z,8.90
2023-11-25T16:14:41.395Z,9.00
2023-11-25T16:17:09.441Z,8.50
2023-11-25T16:19:36.093Z,8.35
2023-11-25T16:22:03.092Z,10.38
2023-11-25T16:24:29.577Z,8.65
2023-11-25T16:26:58.066Z,8.60
2023-11-25T16:29:25.868Z,9.38
2023-11-25T16:31:53.448Z,11.32
2023-11-25T16:34:20.078Z,10.45
2023-11-25T16:36:47.908Z,14.27
2023-11-25T16:39:18.407Z,12.13
2023-11-25T16:41:51.534Z,9.90
2023-11-25T16:44:21.927Z,8.93
2023-11-25T16:46:49.037Z,9.60
2023-11-25T16:49:16.986Z,10.02
2023-11-25T16:51:44.641Z,9.95
2023-11-25T16:54:11.350Z,9.13
2023-11-25T16:56:38.157Z,8.50
2023-11-25T16:59:06.447Z,8.60
2023-11-25T17:01:33.429Z,8.43
2023-11-25T17:04:00.297Z,8.50
2023-11-25T17:06:27.499Z,10.68
2023-11-25T17:08:55.966Z,9.10
2023-11-25T17:11:26.201Z,8.20
2023-11-25T17:13:54.292Z,8.82
2023-11-25T17:16:22.731Z,10.85
2023-11-25T17:18:57.258Z,7.70
2023-11-25T17:21:26.977Z,6.50
2023-11-25T17:23:56.290Z,6.68
2023-11-25T17:26:25.474Z,6.93
2023-11-25T17:28:52.787Z,7.75
2023-11-25T17:31:22.168Z,6.47
2023-11-25T17:33:51.426Z,8.90
2023-11-25T17:36:21.604Z,7.13
2023-11-25T17:38:48.753Z,6.00
2023-11-25T17:41:18.388Z,5.43
2023-11-25T17:43:48.570Z,5.53
2023-11-25T17:46:15.753Z,6.40
2023-11-25T17:48:47.413Z,6.18
2023-11-25T17:51:14.432Z,5.82
2023-11-25T17:53:43.269Z,5.20
2023-11-25T17:56:10.374Z,5.18
2023-11-25T17:58:37.521Z,5.72
2023-11-25T18:01:04.482Z,6.00
2023-11-25T18:03:30.889Z,5.35
2023-11-25T18:05:57.818Z,5.63
2023-11-25T18:08:28.680Z,5.72
2023-11-25T18:10:56.926Z,5.03
2023-11-25T18:13:23.804Z,5.63
2023-11-25T18:15:51.628Z,5.68
2023-11-25T18:18:20.258Z,5.80
2023-11-25T18:20:46.993Z,5.65
2023-11-25T18:23:13.775Z,6.07
2023-11-25T18:25:40.383Z,6.90
2023-11-25T18:28:07.780Z,10.48
2023-11-25T18:30:34.815Z,8.10
2023-11-25T18:33:02.317Z,7.57
2023-11-25T18:35:30.911Z,7.35
2023-11-25T18:37:58.001Z,8.18
2023-11-25T18:40:24.997Z,6.82
2023-11-25T18:42:51.823Z,7.30
2023-11-25T18:45:19.154Z,8.35
2023-11-25T18:47:45.748Z,7.47
2023-11-25T18:50:12.364Z,8.95
2023-11-25T18:52:40.014Z,8.32
2023-11-25T18:55:07.330Z,7.82
2023-11-25T18:57:35.098Z,7.85
2023-11-25T19:00:06.881Z,7.85
2023-11-25T19:02:34.021Z,8.75
2023-11-25T19:05:02.025Z,9.40
2023-11-25T19:07:29.322Z,9.43
2023-11-25T19:09:57.391Z,9.02
2023-11-25T19:12:25.007Z,9.70
2023-11-25T19:14:53.036Z,9.45
2023-11-25T19:17:19.718Z,7.82
2023-11-25T19:19:46.947Z,8.82
2023-11-25T19:22:14.231Z,9.80
2023-11-25T19:24:41.044Z,7.40
2023-11-25T19:27:08.038Z,7.68
2023-11-25T19:29:34.655Z,7.85
2023-11-25T19:32:01.542Z,7.40
2023-11-25T19:34:29.252Z,8.13
2023-11-25T19:36:57.182Z,8.20
2023-11-25T19:39:25.376Z,8.57
2023-11-25T19:41:51.984Z,11.90
2023-11-25T19:44:18.546Z,11.65
2023-11-25T19:46:45.031Z,11.13
2023-11-25T19:49:15.527Z,11.70
2023-11-25T19:51:42.350Z,10.55
2023-11-25T19:54:09.900Z,10.05
2023-11-25T19:56:39.224Z,9.00
2023-11-25T19:59:07.596Z,7.97
2023-11-25T20:01:36.117Z,9.10
2023-11-25T20:04:03.765Z,8.07
2023-11-25T20:06:31.838Z,8.25
2023-11-25T20:08:59.664Z,8.13
2023-11-25T20:11:27.149Z,7.95
2023-11-25T20:13:54.689Z,8.40
2023-11-25T20:16:22.282Z,9.38
2023-11-25T20:18:49.826Z,8.30
2023-11-25T20:21:16.473Z,9.45
2023-11-25T20:23:43.787Z,9.82
2023-11-25T20:26:10.738Z,9.93
2023-11-25T20:28:38.231Z,9.93
2023-11-25T20:31:07.080Z,10.20
2023-11-25T20:33:34.088Z,10.88
2023-11-25T20:36:00.677Z,10.55
2023-11-25T20:38:29.083Z,10.30
2023-11-25T20:40:59.765Z,9.95
2023-11-25T20:43:27.125Z,8.95
2023-11-25T20:45:54.479Z,9.70
2023-11-25T20:48:21.394Z,10.10
2023-11-25T20:50:48.040Z,9.35
2023-11-25T20:53:14.948Z,9.63
2023-11-25T20:55:41.906Z,9.43
2023-11-25T20:58:10.062Z,9.75
2023-11-25T21:00:37.265Z,9.35
2023-11-25T21:03:04.709Z,9.30
2023-11-25T21:05:32.971Z,9.15
2023-11-25T21:08:01.030Z,9.32
2023-11-25T21:10:29.405Z,10.07
2023-11-25T21:12:58.356Z,9.85
2023-11-25T21:15:26.460Z,10.07
2023-11-25T21:17:53.121Z,11.20
2023-11-25T21:20:20.820Z,24.20
2023-11-25T21:22:48.249Z,11.60
2023-11-25T21:25:22.827Z,10.68
2023-11-25T21:27:51.658Z,11.40
2023-11-25T21:30:18.225Z,10.90
2023-11-25T21:32:45.181Z,9.93
2023-11-25T21:35:11.869Z,10.90
2023-11-25T21:37:38.420Z,10.75
2023-11-25T21:40:16.318Z,12.43
2023-11-25T21:42:47.349Z,11.70
2023-11-25T21:45:14.289Z,10.55
2023-11-25T21:47:41.399Z,11.73
2023-11-25T21:50:08.972Z,11.55
2023-11-25T21:52:39.946Z,12.27
2023-11-25T21:55:06.678Z,13.82
2023-11-25T21:57:33.495Z,13.13
2023-11-25T22:00:01.158Z,12.52
2023-11-25T22:02:29.813Z,13.15
2023-11-25T22:04:57.737Z,12.80
2023-11-25T22:07:26.170Z,13.20
2023-11-25T22:09:53.154Z,13.05
2023-11-25T22:12:20.609Z,14.02
2023-11-25T22:14:47.552Z,13.05
2023-11-25T22:17:14.607Z,12.38
2023-11-25T22:19:41.548Z,12.93
2023-11-25T22:22:08.893Z,13.03
2023-11-25T22:24:39.022Z,12.05
2023-11-25T22:27:23.191Z,11.00
2023-11-25T22:29:52.207Z,12.55
2023-11-25T22:32:19.301Z,12.15
2023-11-25T22:34:46.102Z,11.90
2023-11-25T22:37:13.061Z,12.45
2023-11-25T22:39:39.953Z,13.07
2023-11-25T22:42:07.770Z,13.50
2023-11-25T22:44:34.938Z,13.88
2023-11-25T22:47:02.323Z,13.05
2023-11-25T22:49:29.324Z,13.20
2023-11-25T22:51:56.385Z,12.93
2023-11-25T22:54:24.691Z,13.07
2023-11-25T22:56:51.166Z,13.60
2023-11-25T22:59:19.333Z,12.93
2023-11-25T23:01:46.505Z,14.00
2023-11-25T23:04:13.212Z,13.70
2023-11-25T23:06:42.369Z,15.48
2023-11-25T23:09:10.353Z,15.60
2023-11-25T23:11:36.959Z,17.80
2023-11-25T23:14:05.752Z,17.08
2023-11-25T23:16:34.122Z,16.35
2023-11-25T23:19:02.245Z,14.55
2023-11-25T23:21:33.504Z,13.98
2023-11-25T23:24:01.169Z,13.50
2023-11-25T23:26:30.026Z,12.35
2023-11-25T23:28:57.915Z,13.15
2023-11-25T23:31:24.572Z,18.92
2023-11-25T23:33:51.628Z,14.48
2023-11-25T23:36:18.353Z,13.88
2023-11-25T23:38:45.604Z,13.38
2023-11-25T23:41:12.099Z,12.60
2023-11-25T23:43:43.587Z,10.93
2023-11-25T23:46:11.825Z,10.63
2023-11-25T23:48:39.512Z,9.60
2023-11-25T23:51:06.441Z,8.30
2023-11-25T23:53:34.009Z,8.05
2023-11-25T23:56:01.222Z,7.72
2023-11-25T23:58:28.390Z,6.60
